Aérodrome :
LOGIN :

S'inscrire | Disclaimer

   EN    FR    IT 

 










Légende :    VFR   VFR Marginal   IFR   IFR Intensif   IFR Très Intensif
Visi : 
Plafond : 
>= 8 km
>= 3000ft
5 à 8 km
1000 à 3000 ft
1500m à 5 km
500 à 1000 ft
800 à 1500m
200 à 500 ft
< 800m
< 200 ft
Symboles :   Orages  Brouillard  Fortes neiges  Fortes précipitations  Vent > 20 kt
SIGMETs :   Divers  Orages  Givrage  Turbulence  Onde Orograph.  Cendres Volcan.






- Altitude de l'aérodrome : 236 ft
- Code IATA : MMX


ESMS - Malmö Sturup

DERNIER METAR :
  • 290550Z 02013KT 9999 SCT042 BKN055 01/M03 Q1025

METARs EXPIRÉS :
  • 290520Z 02015KT 9999 FEW014 SCT025 00/M02 Q1025
  • 290450Z 03014KT 6000 -SN SCT011 BKN041 BKN053 00/M01 Q1025
  • 290420Z 03016KT 4600 -SN SCT010 BKN021 OVC026 00/M01 Q1024
  • 290350Z 03014KT 3200 -SN VV021 00/M00 Q1023
  • 290320Z AUTO 03013KT 350V050 4800 -SN FEW009/// SCT012/// BKN020/// 01/00 Q1023

TAF TAF ESMS
Valide du 29 à 06h jusqu'au 30 à 06h UTC


290508Z 2906/3006 03015KT 9999 FEW020
TEMPO 2906/2914 02015G25KT
BECMG 2915/2918 33008KT
TEMPO 3004/3006 2500 BR



MET'MAP, la Météo Aéronautique d'un coup d'oeil ! - Copyright ORBIFLY Décembre 2007 - Disclaimer

ORBIFLY MET'MAP TEAM :

Programmation & Développement : Alexandra Zaïnal
Sur une idée originale de : Baudouin d'Aumeries
Assistance à la programmation : Marc-Olivier Méhu
Soutien technique & logistique : Manuel Goepfert

Contact : metmap@orbifly.com




SOURCES & CREDITS :

   NOAA